FKYS/NSI METAR and TAF weather

Enter ICAO airport designator
Station Type Date Time Source
FKYS METAR 2019/10/20 19:00 UTC NOAA

FKYS 201900Z 27004KT 160V300 9999 FEW010 23/21 Q1016 NOSIG


Station Type Date Time Source
FKYS Decoded METAR 2019/10/20 19:00 UTC NOAA

Yaounde, Cameroon (FKYS) 03-50N 011-31E 760M
Oct 20, 2019 - 03:00 PM EDT / 2019.10.20 1900 UTC
Wind: from the W (270 degrees) at 5 MPH (4 KT) (direction variable):0
Visibility: greater than 7 mile(s):0
Sky conditions: mostly clear
Temperature: 73 F (23 C)
Dew Point: 69 F (21 C)
Relative Humidity: 88%
Pressure (altimeter): 30.00 in. Hg (1016 hPa)
ob: FKYS 201900Z 27004KT 160V300 9999 FEW010 23/21 Q1016 NOSIG
cycle: 19

Station Type Date Time Source
FKYS TAF 2019/10/20 18:31 UTC NOAA

TAF FKYS 201700Z 2018/2118 24003KT 9999 BKN006 FEW016CB PROB30 2103/2107 -TSRA
BECMG 2108/2110 BKN016

Example: see airport list